createdAt,value
2023-01-09T00:00:25.705Z,9.30
2023-01-09T00:01:29.764Z,9.30
2023-01-09T00:02:32.862Z,9.30
2023-01-09T00:03:34.920Z,9.30
2023-01-09T00:04:37.965Z,9.30
2023-01-09T00:05:40.000Z,9.40
2023-01-09T00:06:46.950Z,9.40
2023-01-09T00:07:49.062Z,9.40
2023-01-09T00:08:52.224Z,9.40
2023-01-09T00:09:54.299Z,9.40
2023-01-09T00:10:57.353Z,9.40
2023-01-09T00:11:59.578Z,9.40
2023-01-09T00:13:02.601Z,9.40
2023-01-09T00:14:05.343Z,9.50
2023-01-09T00:15:09.646Z,9.50
2023-01-09T00:16:12.648Z,9.50
2023-01-09T00:17:14.649Z,9.50
2023-01-09T00:18:17.663Z,9.50
2023-01-09T00:19:20.685Z,9.60
2023-01-09T00:20:23.180Z,9.60
2023-01-09T00:21:26.219Z,9.60
2023-01-09T00:22:29.694Z,9.60
2023-01-09T00:23:32.777Z,9.60
2023-01-09T00:24:34.922Z,9.60
2023-01-09T00:25:37.962Z,9.60
2023-01-09T00:26:40.075Z,9.60
2023-01-09T00:27:45.197Z,9.60
2023-01-09T00:28:49.068Z,9.70
2023-01-09T00:29:52.661Z,9.70
2023-01-09T00:30:56.391Z,9.60
2023-01-09T00:31:59.827Z,9.60
2023-01-09T00:33:01.949Z,9.60
2023-01-09T00:34:07.777Z,9.50
2023-01-09T00:35:14.216Z,9.50
2023-01-09T00:36:17.220Z,9.40
2023-01-09T00:37:19.251Z,9.40
2023-01-09T00:38:23.763Z,9.30
2023-01-09T00:39:25.761Z,9.30
2023-01-09T00:40:29.365Z,9.30
2023-01-09T00:41:35.316Z,9.20
2023-01-09T00:42:39.043Z,9.20
2023-01-09T00:43:47.013Z,9.20
2023-01-09T00:44:54.473Z,9.20
2023-01-09T00:45:56.726Z,9.20
2023-01-09T00:47:03.578Z,9.20
2023-01-09T00:48:10.865Z,9.10
2023-01-09T00:49:14.682Z,9.10
2023-01-09T00:50:22.249Z,9.10
2023-01-09T00:51:25.378Z,9.10
2023-01-09T00:52:30.227Z,9.10
2023-01-09T00:53:37.053Z,9.00
2023-01-09T00:54:40.430Z,9.00
2023-01-09T00:55:43.527Z,9.10
2023-01-09T00:56:46.258Z,9.10
2023-01-09T00:57:49.500Z,9.10
2023-01-09T00:58:52.839Z,9.10
2023-01-09T00:59:55.853Z,9.00
2023-01-09T01:00:57.959Z,9.00
2023-01-09T01:02:01.384Z,9.00
2023-01-09T01:03:03.673Z,9.00
2023-01-09T01:04:20.666Z,9.00
2023-01-09T01:05:41.014Z,9.00
2023-01-09T01:07:01.447Z,8.90
2023-01-09T01:08:11.023Z,8.90
2023-01-09T01:09:15.362Z,8.90
2023-01-09T01:10:20.423Z,8.80
2023-01-09T01:11:24.130Z,8.80
2023-01-09T01:12:26.331Z,8.80
2023-01-09T01:13:29.422Z,8.80
2023-01-09T01:14:31.439Z,8.80
2023-01-09T01:15:34.639Z,8.70
2023-01-09T01:16:36.830Z,8.70
2023-01-09T01:17:41.888Z,8.70
2023-01-09T01:18:44.057Z,8.70
2023-01-09T01:19:47.402Z,8.70
2023-01-09T01:20:49.433Z,8.70
2023-01-09T01:21:52.759Z,8.70
2023-01-09T01:22:54.769Z,8.70
2023-01-09T01:23:57.797Z,8.60
2023-01-09T01:25:01.292Z,8.60
2023-01-09T01:26:08.077Z,8.60
2023-01-09T01:27:10.155Z,8.60
2023-01-09T01:28:13.169Z,8.60
2023-01-09T01:29:15.299Z,8.60
2023-01-09T01:30:20.060Z,8.60
2023-01-09T01:31:22.177Z,8.60
2023-01-09T01:32:25.172Z,8.60
2023-01-09T01:33:27.251Z,8.60
2023-01-09T01:34:30.703Z,8.60
2023-01-09T01:35:32.864Z,8.60
2023-01-09T01:36:36.066Z,8.60
2023-01-09T01:37:39.609Z,8.60
2023-01-09T01:38:42.611Z,8.60
2023-01-09T01:39:45.664Z,8.60
2023-01-09T01:40:54.123Z,8.70
2023-01-09T01:41:57.102Z,8.70
2023-01-09T01:42:59.268Z,8.70
2023-01-09T01:44:04.812Z,8.70
2023-01-09T01:45:09.844Z,8.70
2023-01-09T01:46:12.956Z,8.70
2023-01-09T01:47:18.149Z,8.70
2023-01-09T01:48:24.333Z,8.70
2023-01-09T01:49:26.482Z,8.70
2023-01-09T01:50:36.204Z,8.70
2023-01-09T01:51:42.896Z,8.70
2023-01-09T01:52:48.184Z,8.70
2023-01-09T01:53:53.875Z,8.70
2023-01-09T01:54:56.979Z,8.70
2023-01-09T01:56:06.428Z,8.80
2023-01-09T01:57:08.534Z,8.80
2023-01-09T01:58:14.975Z,8.80
2023-01-09T01:59:22.020Z,8.80
2023-01-09T02:00:31.157Z,8.80
2023-01-09T02:01:36.422Z,8.80
2023-01-09T02:02:38.718Z,8.80
2023-01-09T02:03:43.478Z,8.80
2023-01-09T02:04:47.105Z,8.80
2023-01-09T02:05:50.614Z,8.80
2023-01-09T02:06:54.070Z,8.80
2023-01-09T02:07:57.092Z,8.80
2023-01-09T02:08:59.225Z,8.80
2023-01-09T02:10:02.714Z,8.80
2023-01-09T02:11:06.453Z,8.80
2023-01-09T02:12:18.553Z,8.70
2023-01-09T02:13:21.898Z,8.80
2023-01-09T02:14:27.063Z,8.70
2023-01-09T02:15:36.137Z,8.70
2023-01-09T02:16:47.996Z,8.70
2023-01-09T02:18:24.689Z,8.80
2023-01-09T02:20:00.174Z,8.80
2023-01-09T02:21:07.539Z,8.80
2023-01-09T02:22:18.368Z,8.80
2023-01-09T02:23:52.125Z,8.80
2023-01-09T02:25:13.562Z,8.80
2023-01-09T02:26:52.075Z,8.80
2023-01-09T02:28:30.896Z,8.80
2023-01-09T02:30:04.762Z,8.80
2023-01-09T02:31:14.700Z,8.70
2023-01-09T02:32:27.444Z,8.80
2023-01-09T02:33:43.374Z,8.80
2023-01-09T02:34:52.642Z,8.70
2023-01-09T02:36:11.571Z,8.70
2023-01-09T02:37:25.566Z,8.70
2023-01-09T02:38:36.840Z,8.70
2023-01-09T02:39:43.805Z,8.70
2023-01-09T02:40:53.478Z,8.70
2023-01-09T02:42:02.111Z,8.60
2023-01-09T02:43:07.678Z,8.60
2023-01-09T02:44:16.448Z,8.60
2023-01-09T02:45:20.871Z,8.60
2023-01-09T02:46:23.258Z,8.60
2023-01-09T02:47:43.835Z,8.60
2023-01-09T02:48:46.664Z,8.60
2023-01-09T02:49:53.417Z,8.60
2023-01-09T02:51:07.350Z,8.50
2023-01-09T02:52:27.585Z,8.50
2023-01-09T02:54:09.900Z,8.50
2023-01-09T02:55:24.504Z,8.50
2023-01-09T02:56:42.324Z,8.50
2023-01-09T02:57:54.411Z,8.50
2023-01-09T02:59:14.386Z,8.50
2023-01-09T03:00:30.351Z,8.50
2023-01-09T03:01:44.695Z,8.50
2023-01-09T03:02:51.077Z,8.50
2023-01-09T03:04:00.989Z,8.40
2023-01-09T03:05:11.335Z,8.50
2023-01-09T03:06:21.180Z,8.40
2023-01-09T03:07:29.222Z,8.50
2023-01-09T03:08:38.459Z,8.40
2023-01-09T03:09:42.437Z,8.40
2023-01-09T03:10:51.732Z,8.40
2023-01-09T03:11:59.411Z,8.40
2023-01-09T03:13:04.368Z,8.40
2023-01-09T03:14:11.559Z,8.50
2023-01-09T03:15:16.334Z,8.40
2023-01-09T03:16:23.906Z,8.40
2023-01-09T03:17:33.041Z,8.40
2023-01-09T03:18:37.059Z,8.40
2023-01-09T03:19:40.767Z,8.40
2023-01-09T03:20:43.814Z,8.40
2023-01-09T03:21:48.336Z,8.30
2023-01-09T03:22:54.955Z,8.30
2023-01-09T03:24:00.140Z,8.30
2023-01-09T03:25:02.468Z,8.30
2023-01-09T03:26:05.661Z,8.30
2023-01-09T03:27:08.588Z,8.30
2023-01-09T03:28:26.474Z,8.30
2023-01-09T03:29:29.621Z,8.20
2023-01-09T03:30:34.408Z,8.20
2023-01-09T03:31:38.026Z,8.20
2023-01-09T03:32:41.245Z,8.20
2023-01-09T03:33:43.911Z,8.20
2023-01-09T03:34:46.936Z,8.20
2023-01-09T03:35:49.099Z,8.20
2023-01-09T03:36:52.293Z,8.20
2023-01-09T03:37:54.615Z,8.20
2023-01-09T03:38:57.613Z,8.20
2023-01-09T03:39:59.735Z,8.20
2023-01-09T03:41:02.891Z,8.20
2023-01-09T03:42:05.282Z,8.10
2023-01-09T03:43:08.280Z,8.10
2023-01-09T03:44:11.291Z,8.10
2023-01-09T03:45:14.176Z,8.10
2023-01-09T03:46:17.566Z,8.10
2023-01-09T03:47:21.035Z,8.10
2023-01-09T03:48:24.197Z,8.10
2023-01-09T03:49:26.275Z,8.10
2023-01-09T03:50:29.489Z,8.00
2023-01-09T03:51:31.598Z,8.00
2023-01-09T03:52:36.076Z,8.00
2023-01-09T03:53:38.581Z,8.00
2023-01-09T03:54:41.712Z,7.90
2023-01-09T03:55:46.030Z,7.90
2023-01-09T03:56:50.224Z,7.90
2023-01-09T03:57:52.892Z,7.80
2023-01-09T03:58:56.035Z,7.80
2023-01-09T03:59:58.223Z,7.80
2023-01-09T04:01:03.879Z,7.70
2023-01-09T04:02:07.222Z,7.70
2023-01-09T04:03:10.683Z,7.70
2023-01-09T04:04:13.794Z,7.60
2023-01-09T04:05:15.856Z,7.60
2023-01-09T04:06:18.924Z,7.50
2023-01-09T04:07:21.074Z,7.50
2023-01-09T04:08:24.164Z,7.50
2023-01-09T04:09:26.415Z,7.40
2023-01-09T04:10:29.752Z,7.40
2023-01-09T04:11:34.000Z,7.40
2023-01-09T04:12:36.147Z,7.30
2023-01-09T04:13:39.605Z,7.30
2023-01-09T04:14:41.735Z,7.20
2023-01-09T04:15:44.793Z,7.20
2023-01-09T04:16:46.862Z,7.20
2023-01-09T04:17:50.078Z,7.10
2023-01-09T04:18:53.478Z,7.10
2023-01-09T04:19:56.594Z,7.10
2023-01-09T04:20:58.618Z,7.10
2023-01-09T04:22:01.591Z,7.00
2023-01-09T04:23:03.598Z,7.00
2023-01-09T04:24:07.689Z,7.00
2023-01-09T04:25:10.090Z,6.90
2023-01-09T04:26:13.093Z,6.90
2023-01-09T04:27:15.281Z,6.90
2023-01-09T04:28:18.392Z,6.90
2023-01-09T04:29:20.599Z,6.90
2023-01-09T04:30:23.635Z,6.90
2023-01-09T04:31:25.682Z,6.90
2023-01-09T04:32:28.746Z,6.90
2023-01-09T04:33:30.968Z,6.80
2023-01-09T04:34:35.312Z,6.80
2023-01-09T04:35:37.534Z,6.80
2023-01-09T04:36:42.950Z,6.80
2023-01-09T04:37:45.110Z,6.80
2023-01-09T04:38:48.164Z,6.80
2023-01-09T04:39:51.387Z,6.80
2023-01-09T04:40:54.537Z,6.80
2023-01-09T04:41:56.733Z,6.80
2023-01-09T04:42:59.764Z,6.70
2023-01-09T04:44:01.821Z,6.80
2023-01-09T04:45:05.353Z,6.70
2023-01-09T04:46:07.403Z,6.70
2023-01-09T04:47:10.711Z,6.70
2023-01-09T04:48:12.744Z,6.60
2023-01-09T04:49:16.032Z,6.60
2023-01-09T04:50:19.673Z,6.60
2023-01-09T04:51:22.791Z,6.70
2023-01-09T04:52:24.997Z,6.60
2023-01-09T04:53:28.079Z,6.60
2023-01-09T04:54:30.258Z,6.70
2023-01-09T04:55:33.531Z,6.60
2023-01-09T04:56:36.484Z,6.60
2023-01-09T04:57:39.522Z,6.60
2023-01-09T04:58:41.530Z,6.60
2023-01-09T04:59:44.548Z,6.50
2023-01-09T05:00:46.616Z,6.50
2023-01-09T05:01:52.118Z,6.50
2023-01-09T05:02:54.245Z,6.50
2023-01-09T05:03:57.605Z,6.50
2023-01-09T05:05:01.201Z,6.50
2023-01-09T05:06:05.008Z,6.50
2023-01-09T05:07:08.117Z,6.50
2023-01-09T05:08:11.156Z,6.50
2023-01-09T05:09:13.158Z,6.40
2023-01-09T05:10:16.496Z,6.40
2023-01-09T05:11:18.789Z,6.40
2023-01-09T05:12:21.830Z,6.40
2023-01-09T05:13:23.877Z,6.40
2023-01-09T05:14:26.876Z,6.40
2023-01-09T05:15:30.905Z,6.40
2023-01-09T05:16:34.129Z,6.30
2023-01-09T05:17:37.221Z,6.30
2023-01-09T05:18:39.539Z,6.30
2023-01-09T05:19:42.629Z,6.30
2023-01-09T05:20:44.674Z,6.30
2023-01-09T05:21:49.032Z,6.30
2023-01-09T05:22:52.096Z,6.30
2023-01-09T05:24:00.521Z,6.30
2023-01-09T05:25:07.070Z,6.40
2023-01-09T05:26:09.125Z,6.30
2023-01-09T05:27:12.183Z,6.40
2023-01-09T05:28:14.193Z,6.40
2023-01-09T05:29:17.286Z,6.40
2023-01-09T05:30:19.511Z,6.40
2023-01-09T05:31:22.992Z,6.40
2023-01-09T05:32:25.112Z,6.50
2023-01-09T05:33:28.125Z,6.50
2023-01-09T05:34:30.428Z,6.50
2023-01-09T05:35:33.516Z,6.50
2023-01-09T05:36:35.541Z,6.60
2023-01-09T05:37:39.961Z,6.60
2023-01-09T05:38:42.095Z,6.60
2023-01-09T05:39:45.216Z,6.60
2023-01-09T05:40:47.279Z,6.60
2023-01-09T05:41:50.291Z,6.60
2023-01-09T05:42:52.319Z,6.60
2023-01-09T05:43:55.469Z,6.60
2023-01-09T05:44:58.479Z,6.60
2023-01-09T05:46:00.753Z,6.60
2023-01-09T05:47:03.737Z,6.60
2023-01-09T05:48:06.313Z,6.60
2023-01-09T05:49:09.318Z,6.60
2023-01-09T05:50:12.344Z,6.50
2023-01-09T05:51:15.336Z,6.50
2023-01-09T05:52:17.423Z,6.50
2023-01-09T05:53:21.777Z,6.50
2023-01-09T05:54:24.104Z,6.40
2023-01-09T05:55:27.200Z,6.40
2023-01-09T05:56:30.057Z,6.40
2023-01-09T05:57:33.129Z,6.30
2023-01-09T05:58:35.297Z,6.30
2023-01-09T05:59:38.274Z,6.30
2023-01-09T06:00:40.322Z,6.30
2023-01-09T06:01:43.341Z,6.30
2023-01-09T06:02:45.484Z,6.30
2023-01-09T06:03:48.718Z,6.30
2023-01-09T06:04:50.922Z,6.30
2023-01-09T06:05:53.940Z,6.30
2023-01-09T06:06:56.223Z,6.30
2023-01-09T06:07:59.240Z,6.30
2023-01-09T06:09:03.563Z,6.40
2023-01-09T06:10:07.987Z,6.40
2023-01-09T06:11:10.011Z,6.40
2023-01-09T06:12:13.021Z,6.40
2023-01-09T06:13:15.068Z,6.50
2023-01-09T06:14:18.254Z,6.50
2023-01-09T06:15:20.645Z,6.50
2023-01-09T06:16:24.535Z,6.50
2023-01-09T06:17:26.669Z,6.50
2023-01-09T06:18:29.678Z,6.50
2023-01-09T06:19:32.683Z,6.50
2023-01-09T06:20:34.829Z,6.50
2023-01-09T06:21:37.887Z,6.50
2023-01-09T06:22:39.939Z,6.50
2023-01-09T06:23:42.934Z,6.50
2023-01-09T06:24:46.387Z,6.60
2023-01-09T06:25:49.353Z,6.60
2023-01-09T06:26:51.399Z,6.60
2023-01-09T06:27:54.393Z,6.60
2023-01-09T06:28:56.497Z,6.60
2023-01-09T06:29:59.534Z,6.60
2023-01-09T06:31:02.630Z,6.60
2023-01-09T06:32:05.102Z,6.60
2023-01-09T06:33:08.190Z,6.50
2023-01-09T06:34:10.334Z,6.50
2023-01-09T06:35:13.327Z,6.40
2023-01-09T06:36:16.434Z,6.40
2023-01-09T06:37:18.531Z,6.40
2023-01-09T06:38:21.658Z,6.40
2023-01-09T06:39:23.649Z,6.30
2023-01-09T06:40:28.149Z,6.40
2023-01-09T06:41:31.121Z,6.40
2023-01-09T06:42:33.144Z,6.40
2023-01-09T06:43:36.546Z,6.50
2023-01-09T06:44:38.795Z,6.50
2023-01-09T06:45:43.854Z,6.50
2023-01-09T06:46:45.908Z,6.50
2023-01-09T06:47:50.110Z,6.60
2023-01-09T06:48:52.220Z,6.60
2023-01-09T06:49:55.267Z,6.60
2023-01-09T06:50:57.455Z,6.70
2023-01-09T06:52:05.419Z,6.70
2023-01-09T06:53:10.643Z,6.70
2023-01-09T06:54:12.680Z,6.70
2023-01-09T06:55:16.672Z,6.70
2023-01-09T06:56:21.092Z,6.70
2023-01-09T06:57:23.134Z,6.70
2023-01-09T06:58:26.162Z,6.70
2023-01-09T06:59:28.205Z,6.80
2023-01-09T07:00:31.811Z,6.70
2023-01-09T07:01:34.004Z,6.70
2023-01-09T07:02:37.099Z,6.70
2023-01-09T07:03:39.335Z,6.60
2023-01-09T07:04:42.500Z,6.60
2023-01-09T07:05:44.584Z,6.60
2023-01-09T07:06:48.963Z,6.60
2023-01-09T07:07:51.063Z,6.60
2023-01-09T07:08:54.152Z,6.60
2023-01-09T07:09:57.121Z,6.60
2023-01-09T07:11:00.126Z,6.50
2023-01-09T07:12:03.779Z,6.50
2023-01-09T07:13:06.858Z,6.60
2023-01-09T07:14:09.063Z,6.60
2023-01-09T07:15:12.635Z,6.60
2023-01-09T07:16:14.681Z,6.60
2023-01-09T07:17:17.736Z,6.60
2023-01-09T07:18:21.092Z,6.60
2023-01-09T07:19:24.355Z,6.70
2023-01-09T07:20:26.534Z,6.70
2023-01-09T07:21:31.991Z,6.70
2023-01-09T07:22:34.767Z,6.80
2023-01-09T07:23:37.782Z,6.80
2023-01-09T07:24:39.951Z,6.80
2023-01-09T07:25:43.688Z,6.90
2023-01-09T07:26:45.916Z,6.80
2023-01-09T07:27:50.475Z,6.90
2023-01-09T07:28:52.522Z,6.90
2023-01-09T07:29:55.606Z,6.90
2023-01-09T07:31:01.541Z,6.90
2023-01-09T07:32:03.663Z,6.90
2023-01-09T07:33:06.760Z,7.00
2023-01-09T07:34:09.860Z,7.00
2023-01-09T07:35:11.986Z,7.00
2023-01-09T07:36:15.046Z,7.00
2023-01-09T07:37:17.184Z,7.10
2023-01-09T07:38:20.383Z,7.00
2023-01-09T07:39:23.694Z,7.10
2023-01-09T07:40:27.004Z,7.10
2023-01-09T07:41:30.168Z,7.00
2023-01-09T07:42:32.573Z,7.00
2023-01-09T07:43:37.367Z,7.00
2023-01-09T07:44:39.454Z,7.00
2023-01-09T07:45:42.473Z,7.00
2023-01-09T07:46:45.599Z,7.00
2023-01-09T07:47:48.622Z,7.00
2023-01-09T07:48:51.252Z,6.90
2023-01-09T07:49:54.323Z,7.00
2023-01-09T07:50:57.431Z,7.00
2023-01-09T07:52:00.539Z,7.00
2023-01-09T07:53:03.637Z,6.90
2023-01-09T07:54:07.126Z,7.00
2023-01-09T07:55:10.362Z,7.00
2023-01-09T07:56:13.367Z,7.00
2023-01-09T07:57:15.510Z,7.00
2023-01-09T07:58:18.537Z,7.00
2023-01-09T07:59:22.910Z,7.00
2023-01-09T08:00:25.079Z,7.00
2023-01-09T08:01:28.294Z,7.00
2023-01-09T08:02:31.498Z,7.00
2023-01-09T08:03:34.721Z,7.00
2023-01-09T08:04:36.837Z,7.00
2023-01-09T08:05:39.842Z,7.00
2023-01-09T08:06:42.839Z,7.00
2023-01-09T08:07:45.993Z,7.00
2023-01-09T08:08:49.047Z,7.00
2023-01-09T08:09:51.058Z,7.00
2023-01-09T08:10:54.323Z,7.10
2023-01-09T08:11:58.211Z,7.00
2023-01-09T08:13:00.385Z,7.10
2023-01-09T08:14:03.835Z,7.00
2023-01-09T08:15:09.420Z,7.00
2023-01-09T08:16:12.564Z,7.10
2023-01-09T08:17:15.587Z,7.10
2023-01-09T08:18:18.641Z,7.10
2023-01-09T08:19:21.655Z,7.20
2023-01-09T08:20:23.919Z,7.10
2023-01-09T08:21:27.031Z,7.20
2023-01-09T08:22:29.152Z,7.10
2023-01-09T08:23:32.282Z,7.20
2023-01-09T08:24:36.656Z,7.10
2023-01-09T08:25:38.700Z,7.10
2023-01-09T08:26:41.745Z,7.10
2023-01-09T08:27:44.143Z,7.20
2023-01-09T08:28:48.429Z,7.20
2023-01-09T08:29:50.445Z,7.20
2023-01-09T08:30:54.847Z,7.20
2023-01-09T08:31:57.912Z,7.10
2023-01-09T08:33:00.897Z,7.10
2023-01-09T08:34:04.022Z,7.10
2023-01-09T08:35:07.102Z,7.10
2023-01-09T08:36:10.926Z,7.10
2023-01-09T08:37:14.032Z,7.10
2023-01-09T08:38:16.213Z,7.10
2023-01-09T08:39:19.191Z,7.20
2023-01-09T08:40:22.311Z,7.10
2023-01-09T08:41:42.686Z,7.10
2023-01-09T08:43:03.576Z,7.10
2023-01-09T08:44:24.359Z,7.20
2023-01-09T08:45:45.402Z,7.20
2023-01-09T08:47:07.740Z,7.20
2023-01-09T08:48:10.844Z,7.20
2023-01-09T08:49:12.863Z,7.20
2023-01-09T08:50:16.244Z,7.20
2023-01-09T08:51:19.439Z,7.30
2023-01-09T08:52:22.470Z,7.30
2023-01-09T08:53:25.549Z,7.30
2023-01-09T08:54:30.445Z,7.40
2023-01-09T08:55:34.247Z,7.40
2023-01-09T08:56:37.281Z,7.40
2023-01-09T08:57:47.374Z,7.40
2023-01-09T08:58:50.374Z,7.50
2023-01-09T08:59:52.416Z,7.50
2023-01-09T09:00:55.432Z,7.50
2023-01-09T09:01:58.889Z,7.50
2023-01-09T09:03:02.723Z,7.50
2023-01-09T09:04:05.429Z,7.50
2023-01-09T09:05:09.210Z,7.50
2023-01-09T09:06:12.279Z,7.50
2023-01-09T09:07:15.490Z,7.60
2023-01-09T09:08:19.893Z,7.70
2023-01-09T09:09:21.906Z,7.70
2023-01-09T09:10:26.632Z,7.80
2023-01-09T09:11:29.853Z,7.80
2023-01-09T09:12:32.878Z,7.80
2023-01-09T09:13:34.923Z,7.80
2023-01-09T09:14:55.826Z,7.90
2023-01-09T09:15:58.950Z,7.90
2023-01-09T09:17:02.634Z,7.90
2023-01-09T09:18:07.267Z,7.90
2023-01-09T09:19:09.274Z,8.00
2023-01-09T09:20:13.223Z,8.00
2023-01-09T09:21:16.497Z,8.00
2023-01-09T09:22:18.514Z,8.00
2023-01-09T09:23:22.695Z,8.10
2023-01-09T09:24:25.700Z,8.10
2023-01-09T09:25:29.420Z,8.10
2023-01-09T09:26:31.477Z,8.10
2023-01-09T09:27:36.467Z,8.10
2023-01-09T09:28:39.590Z,8.10
2023-01-09T09:29:41.684Z,8.20
2023-01-09T09:30:44.636Z,8.20
2023-01-09T09:31:47.637Z,8.20
2023-01-09T09:32:52.233Z,8.30
2023-01-09T09:33:55.253Z,8.20
2023-01-09T09:34:57.551Z,8.30
2023-01-09T09:36:00.673Z,8.30
2023-01-09T09:37:02.926Z,8.30
2023-01-09T09:38:06.707Z,8.30
2023-01-09T09:39:09.993Z,8.20
2023-01-09T09:40:20.919Z,8.30
2023-01-09T09:42:04.196Z,8.30
2023-01-09T09:43:43.463Z,8.20
2023-01-09T09:45:05.030Z,8.20
2023-01-09T09:46:16.074Z,8.20
2023-01-09T09:47:32.962Z,8.20
2023-01-09T09:48:40.431Z,8.20
2023-01-09T09:49:53.514Z,8.20
2023-01-09T09:51:31.322Z,8.20
2023-01-09T09:52:44.748Z,8.30
2023-01-09T09:53:54.573Z,8.30
2023-01-09T09:55:02.316Z,8.30
2023-01-09T09:56:06.674Z,8.30
2023-01-09T09:57:15.700Z,8.30
2023-01-09T09:58:26.003Z,8.30
2023-01-09T09:59:33.310Z,8.30
2023-01-09T10:00:36.888Z,8.30
2023-01-09T10:01:44.037Z,8.30
2023-01-09T10:02:51.734Z,8.30
2023-01-09T10:03:58.914Z,8.30
2023-01-09T10:05:07.667Z,8.40
2023-01-09T10:06:17.633Z,8.40
2023-01-09T10:07:24.570Z,8.40
2023-01-09T10:08:37.305Z,8.50
2023-01-09T10:09:48.321Z,8.50
2023-01-09T10:10:54.929Z,8.50
2023-01-09T10:12:03.910Z,8.50
2023-01-09T10:13:23.678Z,8.50
2023-01-09T10:14:26.935Z,8.60
2023-01-09T10:15:39.332Z,8.70
2023-01-09T10:16:53.599Z,8.70
2023-01-09T10:18:11.046Z,8.80
2023-01-09T10:19:27.974Z,8.80
2023-01-09T10:20:49.734Z,8.80
2023-01-09T10:22:00.532Z,8.80
2023-01-09T10:23:17.865Z,8.80
2023-01-09T10:24:34.809Z,8.70
2023-01-09T10:25:45.057Z,8.70
2023-01-09T10:26:50.556Z,8.60
2023-01-09T10:28:19.077Z,8.60
2023-01-09T10:29:41.688Z,8.50
2023-01-09T10:30:49.449Z,8.50
2023-01-09T10:32:02.646Z,8.50
2023-01-09T10:33:18.199Z,8.50
2023-01-09T10:34:36.939Z,8.50
2023-01-09T10:35:55.235Z,8.40
2023-01-09T10:37:09.729Z,8.50
2023-01-09T10:38:15.944Z,8.40
2023-01-09T10:39:22.495Z,8.40
2023-01-09T10:40:30.414Z,8.50
2023-01-09T10:41:38.984Z,8.40
2023-01-09T10:42:45.662Z,8.40
2023-01-09T10:43:53.906Z,8.40
2023-01-09T10:45:02.498Z,8.40
2023-01-09T10:46:09.903Z,8.40
2023-01-09T10:47:18.284Z,8.40
2023-01-09T10:48:27.091Z,8.30
2023-01-09T10:49:31.564Z,8.30
2023-01-09T10:50:38.431Z,8.30
2023-01-09T10:51:47.147Z,8.20
2023-01-09T10:52:52.631Z,8.10
2023-01-09T10:53:57.122Z,8.00
2023-01-09T10:55:05.024Z,7.90
2023-01-09T10:56:19.954Z,7.90
2023-01-09T10:57:40.738Z,7.80
2023-01-09T10:58:43.743Z,7.60
2023-01-09T10:59:46.876Z,7.50
2023-01-09T11:00:51.363Z,7.40
2023-01-09T11:01:54.188Z,7.30
2023-01-09T11:02:57.385Z,7.20
2023-01-09T11:04:02.168Z,7.10
2023-01-09T11:05:07.097Z,7.00
2023-01-09T11:06:21.921Z,6.90
2023-01-09T11:07:29.286Z,6.80
2023-01-09T11:08:40.138Z,6.80
2023-01-09T11:09:57.060Z,6.70
2023-01-09T11:11:01.876Z,6.70
2023-01-09T11:12:25.299Z,6.70
2023-01-09T11:13:31.808Z,6.70
2023-01-09T11:14:34.875Z,6.70
2023-01-09T11:15:37.893Z,6.70
2023-01-09T11:16:52.350Z,6.70
2023-01-09T11:17:56.804Z,6.80
2023-01-09T11:19:02.369Z,6.80
2023-01-09T11:20:16.004Z,6.80
2023-01-09T11:21:33.945Z,6.80
2023-01-09T11:22:43.872Z,6.90
2023-01-09T11:23:46.956Z,6.90
2023-01-09T11:25:01.497Z,7.00
2023-01-09T11:26:04.661Z,7.00
2023-01-09T11:27:31.438Z,7.10
2023-01-09T11:28:34.483Z,7.10
2023-01-09T11:29:36.495Z,7.10
2023-01-09T11:30:53.545Z,7.10
2023-01-09T11:31:58.130Z,7.10
2023-01-09T11:33:01.682Z,7.10
2023-01-09T11:34:04.956Z,7.10
2023-01-09T11:35:17.893Z,7.10
2023-01-09T11:36:26.722Z,7.20
2023-01-09T11:37:30.610Z,7.10
2023-01-09T11:38:48.095Z,7.10
2023-01-09T11:39:51.237Z,7.10
2023-01-09T11:40:57.477Z,7.10
2023-01-09T11:42:03.799Z,7.10
2023-01-09T11:43:16.778Z,7.00
2023-01-09T11:44:20.167Z,7.00
2023-01-09T11:45:28.237Z,7.00
2023-01-09T11:46:38.219Z,7.10
2023-01-09T11:47:40.900Z,7.10
2023-01-09T11:48:56.876Z,7.10
2023-01-09T11:50:18.946Z,7.20
2023-01-09T11:51:26.977Z,7.20
2023-01-09T11:52:30.033Z,7.30
2023-01-09T11:53:54.530Z,7.30
2023-01-09T11:55:00.804Z,7.40
2023-01-09T11:56:03.794Z,7.40
2023-01-09T11:57:08.795Z,7.40
2023-01-09T11:58:14.598Z,7.50
2023-01-09T11:59:19.811Z,7.50
2023-01-09T12:00:28.679Z,7.60
2023-01-09T12:01:47.585Z,7.60
2023-01-09T12:03:03.467Z,7.60
2023-01-09T12:04:23.457Z,7.70
2023-01-09T12:05:36.859Z,7.70
2023-01-09T12:06:47.879Z,7.70
2023-01-09T12:08:13.267Z,7.80
2023-01-09T12:09:22.678Z,7.80
2023-01-09T12:10:50.358Z,7.80
2023-01-09T12:11:58.136Z,7.80
2023-01-09T12:13:06.914Z,7.90
2023-01-09T12:14:30.760Z,7.90
2023-01-09T12:15:42.272Z,7.90
2023-01-09T12:16:57.489Z,8.00
2023-01-09T12:18:30.661Z,8.00
2023-01-09T12:19:54.129Z,7.90
2023-01-09T12:21:23.176Z,7.90
2023-01-09T12:22:37.532Z,7.90
2023-01-09T12:23:55.399Z,7.80
2023-01-09T12:25:14.298Z,7.80
2023-01-09T12:26:21.498Z,7.80
2023-01-09T12:27:32.828Z,7.80
2023-01-09T12:29:08.544Z,7.80
2023-01-09T12:30:27.303Z,7.80
2023-01-09T12:31:44.989Z,7.80
2023-01-09T12:32:58.024Z,7.90
2023-01-09T12:34:13.710Z,8.00
2023-01-09T12:35:30.319Z,8.00
2023-01-09T12:36:48.663Z,8.10
2023-01-09T12:38:21.853Z,8.20
2023-01-09T12:39:32.723Z,8.30
2023-01-09T12:41:02.142Z,8.50
2023-01-09T12:42:19.157Z,8.60
2023-01-09T12:43:33.735Z,8.70
2023-01-09T12:44:51.809Z,8.60
2023-01-09T12:46:11.524Z,8.70
2023-01-09T12:47:45.335Z,8.70
2023-01-09T12:49:19.311Z,8.80
2023-01-09T12:50:46.323Z,8.80
2023-01-09T12:51:56.178Z,8.70
2023-01-09T12:53:09.817Z,8.60
2023-01-09T12:54:20.431Z,8.60
2023-01-09T12:55:25.381Z,8.60
2023-01-09T12:56:34.441Z,8.50
2023-01-09T12:57:41.547Z,8.50
2023-01-09T12:58:52.874Z,8.60
2023-01-09T13:00:01.358Z,8.60
2023-01-09T13:01:08.903Z,8.70
2023-01-09T13:02:21.949Z,8.80
2023-01-09T13:03:31.785Z,8.90
2023-01-09T13:04:40.792Z,8.90
2023-01-09T13:05:46.906Z,8.90
2023-01-09T13:06:56.690Z,8.90
2023-01-09T13:08:04.291Z,8.90
2023-01-09T13:09:19.279Z,8.80
2023-01-09T13:10:28.140Z,8.90
2023-01-09T13:11:38.764Z,8.80
2023-01-09T13:12:44.450Z,8.80
2023-01-09T13:13:51.937Z,8.80
2023-01-09T13:15:00.468Z,8.80
2023-01-09T13:16:07.422Z,8.70
2023-01-09T13:17:14.606Z,8.60
2023-01-09T13:18:23.263Z,8.50
2023-01-09T13:19:29.870Z,8.50
2023-01-09T13:20:38.761Z,8.40
2023-01-09T13:21:42.593Z,8.30
2023-01-09T13:22:50.633Z,8.30
2023-01-09T13:23:58.606Z,8.20
2023-01-09T13:25:34.994Z,8.20
2023-01-09T13:26:42.161Z,8.20
2023-01-09T13:27:53.404Z,8.10
2023-01-09T13:29:03.060Z,8.00
2023-01-09T13:30:18.748Z,8.00
2023-01-09T13:31:46.593Z,7.90
2023-01-09T13:32:58.533Z,7.80
2023-01-09T13:34:04.375Z,7.80
2023-01-09T13:35:14.033Z,7.60
2023-01-09T13:36:25.779Z,7.60
2023-01-09T13:37:30.916Z,7.50
2023-01-09T13:38:39.304Z,7.40
2023-01-09T13:39:42.431Z,7.30
2023-01-09T13:40:45.472Z,7.30
2023-01-09T13:42:10.337Z,7.20
2023-01-09T13:43:14.960Z,7.20
2023-01-09T13:44:24.821Z,7.10
2023-01-09T13:45:31.278Z,7.00
2023-01-09T13:46:40.102Z,7.00
2023-01-09T13:47:43.136Z,6.80
2023-01-09T13:48:46.381Z,6.80
2023-01-09T13:50:01.814Z,6.70
2023-01-09T13:51:42.063Z,6.50
2023-01-09T13:52:45.709Z,6.40
2023-01-09T13:53:50.128Z,6.40
2023-01-09T13:55:25.512Z,6.30
2023-01-09T13:56:28.571Z,6.30
2023-01-09T13:57:34.711Z,6.30
2023-01-09T13:59:02.659Z,6.30
2023-01-09T14:00:43.084Z,6.20
2023-01-09T14:01:47.600Z,6.20
2023-01-09T14:02:55.769Z,6.10
2023-01-09T14:04:37.882Z,6.20
2023-01-09T14:06:04.244Z,6.20
2023-01-09T14:07:24.715Z,6.20
2023-01-09T14:08:29.067Z,6.20
2023-01-09T14:09:37.801Z,6.30
2023-01-09T14:10:48.925Z,6.30
2023-01-09T14:12:04.369Z,6.40
2023-01-09T14:13:09.849Z,6.40
2023-01-09T14:14:28.882Z,6.40
2023-01-09T14:15:39.377Z,6.50
2023-01-09T14:16:42.569Z,6.50
2023-01-09T14:17:46.155Z,6.60
2023-01-09T14:18:50.532Z,6.60
2023-01-09T14:19:57.663Z,6.60
2023-01-09T14:21:03.860Z,6.60
2023-01-09T14:22:08.452Z,6.70
2023-01-09T14:23:42.115Z,6.60
2023-01-09T14:24:52.414Z,6.60
2023-01-09T14:25:57.108Z,6.60
2023-01-09T14:27:02.096Z,6.50
2023-01-09T14:28:19.564Z,6.50
2023-01-09T14:29:43.574Z,6.50
2023-01-09T14:31:09.431Z,6.40
2023-01-09T14:32:43.754Z,6.40
2023-01-09T14:33:48.864Z,6.40
2023-01-09T14:34:54.408Z,6.40
2023-01-09T14:36:09.275Z,6.40
2023-01-09T14:37:15.040Z,6.30
2023-01-09T14:38:28.027Z,6.40
2023-01-09T14:39:33.060Z,6.30
2023-01-09T14:40:38.218Z,6.30
2023-01-09T14:42:06.119Z,6.30
2023-01-09T14:43:22.800Z,6.30
2023-01-09T14:44:30.233Z,6.30
2023-01-09T14:45:35.446Z,6.30
2023-01-09T14:46:40.100Z,6.30
2023-01-09T14:47:46.534Z,6.30
2023-01-09T14:49:00.872Z,6.30
2023-01-09T14:50:08.128Z,6.30
2023-01-09T14:51:17.658Z,6.30
2023-01-09T14:52:24.888Z,6.30
2023-01-09T14:53:30.663Z,6.40